Terminal Aerodrome Forecast
Issued by NWS Newport/Morehead City, NC

Current Version | Previous Version | Text Only | Print | Product List | Glossary Off
Versions: 1 2 3 4 5 6 7 8 9 10 11 12 13 14

000
FTUS42 KMHX 221143
TAFEWN
TAF
KEWN 221143Z 2212/2312 VRB03KT P6SM BKN250
     FM221800 11005KT P6SM SCT040
     FM230800 VRB03KT 6SM BR SCT025=

USA.gov is the U.S. government's official web portal to all federal, state and local government web resources and services.